Drummond Island, Michigan
Current Conditions -  °F | °C
As of 7:55 AM on Wednesday 26 Nov 2014 (Local Time) from KDRM Reporting Station
Overcast Overcast  
Wind Chill: 23°   Ceiling: 3400
Heat Index: 23°   Visibility: 10mi
Dew Point: 23°   Wind: 0mph
Humidity: 99%   Direction: NA
Pressure: 30.17"   Gusts: NA
Location:  46°N, 83.7°W
Report Text: KDRM 261255Z AUTO 00000KT 10SM OVC034 M05/M05 A3017 RMK AO2 T10481050
Loading
Personal Weather Stations






























Interactive Weather Map New forecast layout! Learn more

10-Day Weather Forecast

Advertisements
Track Severe Weather on mobile